createdAt,value
2023-01-10T15:04:40.464Z,4.412231
2023-01-10T15:08:05.652Z,4.331665
2023-01-10T15:11:30.907Z,4.321594
2023-01-10T15:14:56.202Z,4.27124
2023-01-10T15:18:21.426Z,4.291382
2023-01-10T15:21:46.703Z,4.321594
2023-01-10T15:25:11.946Z,4.321594
2023-01-10T15:28:37.212Z,4.261169
2023-01-10T15:32:02.466Z,4.180603
2023-01-10T15:35:35.957Z,4.049683
2023-01-10T15:38:53.020Z,4.059753
2023-01-10T15:42:18.258Z,4.150391
2023-01-10T15:45:43.512Z,4.14032
2023-01-10T15:49:08.761Z,4.160461
2023-01-10T15:52:34.055Z,4.14032
2023-01-10T15:55:59.339Z,4.180603
2023-01-10T15:59:24.584Z,4.220886
2023-01-10T16:02:50.515Z,4.150391
2023-01-10T16:06:15.604Z,4.059753
2023-01-10T16:09:41.000Z,3.999329
2023-01-10T16:13:06.305Z,3.868408
2023-01-10T16:16:31.694Z,3.858337
2023-01-10T16:19:56.954Z,3.868408
2023-01-10T16:23:22.292Z,3.777771
2023-01-10T16:26:47.530Z,3.757629
2023-01-10T16:30:13.005Z,3.777771
2023-01-10T16:33:38.391Z,3.727417
2023-01-10T16:37:03.684Z,3.747559
2023-01-10T16:40:28.939Z,3.687134
2023-01-10T16:43:54.198Z,3.546143
2023-01-10T16:47:19.552Z,3.606567
2023-01-10T16:50:44.823Z,3.656921
2023-01-10T16:54:10.119Z,3.677063
2023-01-10T16:57:35.447Z,3.697205
2023-01-10T17:01:00.844Z,3.697205
2023-01-10T17:04:26.189Z,3.747559
2023-01-10T17:07:51.452Z,3.747559
2023-01-10T17:11:17.475Z,3.828125
2023-01-10T17:14:42.916Z,3.868408
2023-01-10T17:18:09.163Z,3.828125
2023-01-10T17:21:34.660Z,3.787842
2023-01-10T17:25:02.978Z,3.747559
2023-01-10T17:28:28.332Z,3.687134
2023-01-10T17:31:53.689Z,3.566284
2023-01-10T17:35:18.891Z,3.566284
2023-01-10T17:38:44.215Z,3.51593
2023-01-10T17:42:09.823Z,3.536072
2023-01-10T17:45:35.169Z,3.505859
2023-01-10T17:49:00.441Z,3.364868
2023-01-10T17:52:25.734Z,3.364868
2023-01-10T17:55:51.146Z,3.395081
2023-01-10T17:59:16.500Z,3.354797
2023-01-10T18:02:41.824Z,3.334656
2023-01-10T18:06:09.899Z,3.314514
2023-01-10T18:09:32.494Z,3.38501
2023-01-10T18:12:57.765Z,3.38501
2023-01-10T18:16:24.507Z,3.334656
2023-01-10T18:19:48.317Z,3.244019
2023-01-10T18:23:13.645Z,3.294373
2023-01-10T18:26:38.869Z,3.354797
2023-01-10T18:30:04.166Z,3.415222
2023-01-10T18:33:29.417Z,3.314514
2023-01-10T18:36:54.659Z,3.244019
2023-01-10T18:40:19.922Z,3.26416
2023-01-10T18:43:45.170Z,3.314514
2023-01-10T18:47:10.454Z,3.334656
2023-01-10T18:50:35.675Z,3.324585
2023-01-10T18:54:00.932Z,3.284302
2023-01-10T18:57:26.168Z,3.284302
2023-01-10T19:00:51.439Z,3.294373
2023-01-10T19:04:16.700Z,3.334656
2023-01-10T19:07:41.953Z,3.284302
2023-01-10T19:11:13.751Z,3.153381
2023-01-10T19:14:32.446Z,3.113098
2023-01-10T19:17:57.698Z,3.13324
2023-01-10T19:21:23.045Z,3.173523
2023-01-10T19:24:48.215Z,3.183594
2023-01-10T19:28:13.491Z,3.26416
2023-01-10T19:31:38.775Z,3.26416
2023-01-10T19:35:04.012Z,3.203735
2023-01-10T19:38:29.308Z,3.203735
2023-01-10T19:41:54.532Z,3.203735
2023-01-10T19:45:19.819Z,3.173523
2023-01-10T19:48:45.149Z,3.203735
2023-01-10T19:52:10.401Z,3.153381
2023-01-10T19:55:35.705Z,3.153381
2023-01-10T19:59:00.987Z,3.143311
2023-01-10T20:02:26.260Z,3.032532
2023-01-10T20:05:51.500Z,3.153381
2023-01-10T20:09:16.761Z,3.103027
2023-01-10T20:12:42.117Z,3.022461
2023-01-10T20:16:07.399Z,3.052673
2023-01-10T20:19:32.598Z,3.032532
2023-01-10T20:22:57.876Z,3.002319
2023-01-10T20:26:23.121Z,3.052673
2023-01-10T20:29:48.434Z,3.052673
2023-01-10T20:33:13.687Z,3.052673
2023-01-10T20:36:38.959Z,3.032532
2023-01-10T20:40:04.240Z,3.062744
2023-01-10T20:43:29.520Z,3.022461
2023-01-10T20:46:55.036Z,3.082886
2023-01-10T20:50:20.506Z,3.103027
2023-01-10T20:53:45.879Z,3.103027
2023-01-10T20:57:11.169Z,3.113098
2023-01-10T21:00:36.454Z,3.062744
2023-01-10T21:04:01.755Z,2.972107
2023-01-10T21:07:27.019Z,2.921753
2023-01-10T21:10:52.288Z,2.871399
2023-01-10T21:14:17.553Z,2.891541
2023-01-10T21:17:42.824Z,2.931824
2023-01-10T21:21:08.119Z,3.022461
2023-01-10T21:24:33.378Z,2.931824
2023-01-10T21:27:58.698Z,2.962036
2023-01-10T21:31:24.051Z,2.921753
2023-01-10T21:34:49.273Z,2.901611
2023-01-10T21:38:14.590Z,3.022461
2023-01-10T21:41:39.813Z,3.022461
2023-01-10T21:45:05.145Z,3.022461
2023-01-10T21:48:30.490Z,3.002319
2023-01-10T21:51:55.886Z,3.143311
2023-01-10T21:55:21.236Z,3.233948
2023-01-10T21:58:46.516Z,3.203735
2023-01-10T22:02:11.818Z,3.314514
2023-01-10T22:05:37.127Z,3.395081
2023-01-10T22:09:02.427Z,3.26416
2023-01-10T22:12:27.771Z,3.244019
2023-01-10T22:15:53.168Z,3.284302
2023-01-10T22:19:18.470Z,3.233948
2023-01-10T22:22:43.815Z,3.244019
2023-01-10T22:26:09.191Z,3.244019
2023-01-10T22:29:34.635Z,3.334656
2023-01-10T22:32:59.956Z,3.334656
2023-01-10T22:36:25.237Z,3.244019
2023-01-10T22:39:50.632Z,3.233948
2023-01-10T22:43:15.933Z,3.314514
2023-01-10T22:46:42.087Z,3.294373
2023-01-10T22:50:07.405Z,3.314514
2023-01-10T22:53:32.693Z,3.213806
2023-01-10T22:56:57.960Z,3.294373
2023-01-10T23:00:23.300Z,3.26416
2023-01-10T23:03:48.670Z,3.294373
2023-01-10T23:07:13.948Z,3.113098
2023-01-10T23:10:39.197Z,3.113098
2023-01-10T23:14:04.467Z,3.103027
2023-01-10T23:17:29.850Z,2.972107
2023-01-10T23:20:55.243Z,2.901611
2023-01-10T23:24:20.614Z,2.669983
2023-01-10T23:27:45.922Z,2.659912
2023-01-10T23:31:11.207Z,2.659912
2023-01-10T23:34:36.479Z,2.710266
2023-01-10T23:38:01.784Z,2.750549
2023-01-10T23:41:27.080Z,2.569275
2023-01-10T23:44:52.419Z,2.559204
2023-01-10T23:48:17.862Z,2.488708
2023-01-10T23:51:43.202Z,2.448425
2023-01-10T23:55:08.604Z,2.559204
2023-01-10T23:58:33.894Z,2.639771
